Time;durP1;ratioP1;P1;durP2;ratioP2;P2;SDS_P1;SDS_P2;PMS_P1;PMS_P2;Temp;Humidity;BMP_temperature;BMP_pressure;BME280_temperature;BME280_humidity;BME280_pressure;Samples;Min_cycle;Max_cycle;Signal;HPM_P1;HPM_P2
2022/01/15 00:00:27;;;;;;;65.15;15.65;;;6.10;99.90;;;;;;4905843;29;20036;-88
2022/01/15 00:02:53;;;;;;;72.40;14.60;;;6.10;99.90;;;;;;4897473;29;20079;-87
2022/01/15 00:05:19;;;;;;;;;;;6.00;99.90;;;;;;4905108;29;20063;-88
2022/01/15 00:07:47;;;;;;;54.90;13.23;;;6.00;99.90;;;;;;4881580;29;20267;-87
2022/01/15 00:10:15;;;;;;;45.67;12.40;;;6.00;99.90;;;;;;4897994;29;20726;-88
2022/01/15 00:12:40;;;;;;;54.78;14.60;;;6.00;99.90;;;;;;4881240;29;20084;-86
2022/01/15 00:15:16;;;;;;;52.15;14.38;;;6.00;99.90;;;;;;4897429;29;20083;-88
2022/01/15 00:20:10;;;;;;;64.53;14.73;;;6.20;99.90;;;;;;4899247;29;20103;-88
2022/01/15 00:22:36;;;;;;;47.47;13.95;;;6.00;99.90;;;;;;4884026;29;20069;-87
2022/01/15 00:25:02;;;;;;;71.15;14.55;;;6.00;99.90;;;;;;4898610;29;20189;-87
2022/01/15 00:27:27;;;;;;;82.85;14.80;;;6.00;99.90;;;;;;4897286;29;20056;-87
2022/01/15 00:29:53;;;;;;;79.45;15.35;;;6.00;99.90;;;;;;4892108;29;20087;-88
2022/01/15 00:32:19;;;;;;;68.78;13.88;;;6.00;99.90;;;;;;4865294;29;20045;-88
2022/01/15 00:34:44;;;;;;;80.75;15.20;;;6.00;99.90;;;;;;4895803;29;20048;-88
2022/01/15 00:37:10;;;;;;;96.88;15.98;;;6.00;99.90;;;;;;4867013;29;20056;-88
2022/01/15 00:39:36;;;;;;;72.35;14.57;;;6.00;99.90;;;;;;4864941;29;20094;-88
2022/01/15 00:42:02;;;;;;;53.83;13.52;;;6.00;99.90;;;;;;4866232;29;20146;-87
2022/01/15 00:47:05;;;;;;;95.97;16.20;;;6.00;99.90;;;;;;5127762;27;1264417;-86
2022/01/15 00:49:31;;;;;;;99.78;16.77;;;6.00;99.90;;;;;;5114041;27;20483;-86
2022/01/15 00:51:57;;;;;;;85.75;15.52;;;6.00;99.90;;;;;;5113732;27;20544;-86
2022/01/15 00:54:22;;;;;;;84.97;16.52;;;6.00;99.90;;;;;;5130485;27;20085;-87
2022/01/15 00:56:48;;;;;;;90.07;16.33;;;6.10;99.90;;;;;;5109090;28;20096;-85
2022/01/15 00:59:14;;;;;;;63.10;14.82;;;6.00;99.90;;;;;;5094608;27;20082;-86
2022/01/15 01:01:40;;;;;;;76.82;16.13;;;6.00;99.90;;;;;;5130618;27;20118;-87
2022/01/15 01:04:05;;;;;;;91.80;16.45;;;5.90;99.90;;;;;;5113252;27;20670;-86
2022/01/15 01:06:31;;;;;;;60.58;15.98;;;5.90;99.90;;;;;;5114010;27;20054;-86
2022/01/15 01:08:57;;;;;;;77.30;16.05;;;5.90;99.90;;;;;;5112916;27;20139;-87
2022/01/15 01:11:32;;;;;;;112.45;18.65;;;5.90;99.90;;;;;;5113612;27;20043;-86
2022/01/15 01:24:32;;;;;;;58.17;14.50;;;5.90;99.90;;;;;;5129813;27;20047;-85
2022/01/15 01:27:03;;;;;;;;;;;6.10;99.90;;;;;;5129853;27;20053;-86
2022/01/15 01:34:36;;;;;;;49.78;13.68;;;5.90;99.90;;;;;;5130680;27;20103;-85
2022/01/15 01:37:25;;;;;;;80.15;15.43;;;5.90;99.90;;;;;;5129997;27;20111;-87
2022/01/15 01:40:01;;;;;;;51.65;13.55;;;5.90;99.90;;;;;;5129452;27;20050;-85
2022/01/15 01:42:39;;;;;;;48.58;12.82;;;5.90;99.90;;;;;;5128231;27;20051;-86
2022/01/15 01:45:13;;;;;;;45.67;13.27;;;5.90;99.90;;;;;;5107374;28;20087;-86
2022/01/15 01:47:41;;;;;;;62.35;12.80;;;5.90;99.90;;;;;;5110771;27;20148;-85
2022/01/15 01:50:09;;;;;;;65.43;13.90;;;5.90;99.90;;;;;;5128647;27;20057;-86
2022/01/15 01:52:36;;;;;;;57.63;14.65;;;5.90;99.90;;;;;;5130260;27;20047;-85
2022/01/15 01:55:02;;;;;;;65.60;15.15;;;5.90;99.90;;;;;;5129036;27;20188;-86
2022/01/15 01:57:28;;;;;;;;;;;5.90;99.90;;;;;;5122783;27;20047;-86
2022/01/15 01:59:53;;;;;;;57.10;13.18;;;5.90;99.90;;;;;;5113975;27;19919;-85
2022/01/15 02:02:19;;;;;;;86.97;16.25;;;5.90;99.90;;;;;;5116409;27;20092;-86
2022/01/15 02:04:45;;;;;;;52.63;14.07;;;5.90;99.90;;;;;;5116494;27;20051;-86
2022/01/15 02:07:10;;;;;;;46.92;13.40;;;5.90;99.90;;;;;;5115909;27;20503;-86
2022/01/15 02:09:38;;;;;;;50.10;12.98;;;5.90;99.90;;;;;;5114032;27;20035;-86
2022/01/15 02:12:04;;;;;;;57.50;14.35;;;5.90;99.90;;;;;;5115064;27;20055;-86
2022/01/15 02:14:30;;;;;;;;;;;5.90;99.90;;;;;;5115166;27;20493;-87
2022/01/15 02:16:57;;;;;;;47.95;12.65;;;5.90;99.90;;;;;;5098222;27;20454;-85
2022/01/15 02:19:44;;;;;;;47.10;12.65;;;5.90;99.90;;;;;;5098894;27;20384;-85
2022/01/15 02:24:53;;;;;;;45.33;12.35;;;5.90;99.90;;;;;;5115253;27;20047;-85
2022/01/15 02:27:19;;;;;;;46.97;12.73;;;5.80;99.90;;;;;;5115295;27;20047;-85
2022/01/15 02:29:45;;;;;;;50.08;13.48;;;5.90;99.90;;;;;;5114148;27;20686;-85
2022/01/15 02:32:10;;;;;;;50.03;13.10;;;6.00;99.90;;;;;;5115188;27;20057;-85
2022/01/15 02:34:36;;;;;;;49.40;12.88;;;5.80;99.90;;;;;;5112920;27;20039;-86
2022/01/15 02:37:02;;;;;;;34.63;10.95;;;5.90;99.90;;;;;;5082821;27;20484;-85
2022/01/15 02:39:28;;;;;;;41.95;11.15;;;5.80;99.90;;;;;;5115119;27;20499;-85
2022/01/15 02:41:53;;;;;;;39.17;10.80;;;5.90;99.90;;;;;;5094981;28;20051;-85
2022/01/15 02:44:20;;;;;;;36.60;11.55;;;5.90;99.90;;;;;;5076331;28;20077;-86
2022/01/15 02:49:16;;;;;;;41.28;12.25;;;5.80;99.90;;;;;;5115052;27;20047;-86
2022/01/15 02:51:42;;;;;;;50.50;13.10;;;5.80;99.90;;;;;;5093457;28;20488;-86
2022/01/15 02:54:08;;;;;;;45.50;12.20;;;5.80;99.90;;;;;;5093824;28;20077;-86
2022/01/15 02:56:41;;;;;;;46.38;11.80;;;5.80;99.90;;;;;;5077824;28;20043;-86
2022/01/15 02:59:08;;;;;;;47.28;12.02;;;5.80;99.90;;;;;;5105818;28;20046;-85
2022/01/15 03:01:35;;;;;;;50.83;12.27;;;5.80;99.90;;;;;;5102902;27;20043;-86
2022/01/15 03:04:01;;;;;;;52.45;11.98;;;5.80;99.90;;;;;;5109829;28;20062;-86
2022/01/15 03:06:27;;;;;;;52.05;12.82;;;6.00;99.90;;;;;;5094324;28;20076;-86
2022/01/15 03:08:54;;;;;;;57.00;13.50;;;5.80;99.90;;;;;;5093070;28;20044;-86
2022/01/15 03:11:22;;;;;;;39.17;11.43;;;5.80;99.90;;;;;;5094064;28;20566;-86
2022/01/15 03:13:47;;;;;;;41.05;10.85;;;6.00;99.90;;;;;;5104977;28;20065;-86
2022/01/15 03:16:16;;;;;;;35.03;10.25;;;5.80;99.90;;;;;;5059829;28;20469;-87
2022/01/15 03:18:43;;;;;;;38.08;11.32;;;5.90;99.90;;;;;;5111425;28;20044;-86
2022/01/15 03:21:09;;;;;;;38.55;11.32;;;5.80;99.90;;;;;;5139970;27;20083;-85
2022/01/15 03:23:35;;;;;;;45.67;11.38;;;5.80;99.90;;;;;;5132374;27;20114;-85
2022/01/15 03:26:01;;;;;;;44.70;12.10;;;5.80;99.90;;;;;;5096747;28;20173;-85
2022/01/15 03:28:26;;;;;;;43.05;11.52;;;6.10;99.90;;;;;;5092907;28;20487;-86
2022/01/15 03:30:52;;;;;;;46.00;10.95;;;5.80;99.90;;;;;;5092786;28;20051;-86
2022/01/15 03:33:18;;;;;;;50.33;12.05;;;5.80;99.90;;;;;;5101231;27;20167;-86
2022/01/15 03:35:44;;;;;;;42.30;10.98;;;5.80;99.90;;;;;;5080465;27;20051;-86
2022/01/15 03:38:10;;;;;;;44.63;11.88;;;5.80;99.90;;;;;;5113255;27;20456;-86
2022/01/15 03:40:36;;;;;;;38.22;10.88;;;5.70;99.90;;;;;;5114320;27;20054;-86
2022/01/15 03:43:03;;;;;;;37.38;9.95;;;6.00;99.90;;;;;;5113546;27;20422;-85
2022/01/15 03:45:29;;;;;;;43.03;10.40;;;5.80;99.90;;;;;;5112822;27;20047;-84
2022/01/15 03:47:58;;;;;;;34.67;10.13;;;5.70;99.90;;;;;;5096991;27;20065;-86
2022/01/15 03:50:26;;;;;;;31.90;9.25;;;5.90;99.90;;;;;;5097284;27;20046;-85
2022/01/15 03:52:53;;;;;;;29.15;8.27;;;5.80;99.90;;;;;;5114202;27;20078;-85
2022/01/15 03:55:20;;;;;;;32.55;10.02;;;5.70;99.90;;;;;;5113424;27;20062;-85
2022/01/15 03:57:45;;;;;;;34.05;10.00;;;5.70;99.90;;;;;;5114122;27;20400;-86
2022/01/15 04:00:21;;;;;;;36.50;10.10;;;5.70;99.90;;;;;;5111374;27;20050;-86
2022/01/15 04:02:49;;;;;;;34.58;9.73;;;5.70;99.90;;;;;;5110602;28;20044;-86
2022/01/15 04:05:15;;;;;;;32.17;9.45;;;5.70;99.90;;;;;;5090485;28;20040;-86
2022/01/15 04:07:41;;;;;;;;;;;5.70;99.90;;;;;;5106590;27;20043;-86
2022/01/15 04:10:09;;;;;;;42.47;10.05;;;5.70;99.90;;;;;;5110560;27;19945;-85
2022/01/15 04:12:35;;;;;;;33.47;9.57;;;5.70;99.90;;;;;;5101033;28;20049;-86
2022/01/15 04:15:01;;;;;;;33.40;9.90;;;5.70;99.90;;;;;;5091673;28;20052;-85
2022/01/15 04:17:26;;;;;;;31.08;9.10;;;5.70;99.90;;;;;;5092779;28;20044;-85
2022/01/15 04:19:52;;;;;;;30.65;9.43;;;5.70;99.90;;;;;;5093317;28;20092;-86
2022/01/15 04:22:18;;;;;;;32.83;8.70;;;5.70;99.90;;;;;;5093000;28;20039;-86
2022/01/15 04:24:44;;;;;;;34.15;8.85;;;5.70;99.90;;;;;;5076254;28;20547;-86
2022/01/15 04:27:10;;;;;;;28.92;9.57;;;5.70;99.90;;;;;;5058997;28;20051;-85
2022/01/15 04:29:36;;;;;;;34.17;9.88;;;5.70;99.90;;;;;;5094283;28;20043;-85
2022/01/15 04:32:02;;;;;;;;;;;5.80;99.90;;;;;;5060791;28;20051;-86
2022/01/15 04:34:29;;;;;;;27.02;7.95;;;5.70;99.90;;;;;;5112982;28;19920;-86
2022/01/15 04:37:16;;;;;;;30.35;9.68;;;5.70;99.90;;;;;;5096499;28;20051;-86
2022/01/15 04:39:42;;;;;;;25.75;9.07;;;6.10;99.90;;;;;;5100335;28;20050;-86
2022/01/15 04:42:09;;;;;;;29.48;8.43;;;5.70;99.90;;;;;;5093061;28;20043;-85
2022/01/15 04:44:35;;;;;;;29.23;8.02;;;5.60;99.90;;;;;;5091815;28;20126;-86
2022/01/15 04:47:03;;;;;;;;;;;5.70;99.90;;;;;;5092479;28;20066;-86
2022/01/15 04:49:29;;;;;;;21.98;7.57;;;5.60;99.90;;;;;;5092534;28;19922;-86
2022/01/15 04:51:55;;;;;;;27.33;8.52;;;5.60;99.90;;;;;;5096523;28;20032;-86
2022/01/15 04:54:21;;;;;;;32.60;8.73;;;5.60;99.90;;;;;;5092109;28;20126;-87
2022/01/15 04:56:46;;;;;;;31.40;9.43;;;6.00;99.90;;;;;;5095768;28;20487;-85
2022/01/15 04:59:12;;;;;;;38.85;9.73;;;6.00;99.90;;;;;;5094521;28;20166;-86
2022/01/15 05:01:38;;;;;;;28.10;8.45;;;5.70;99.90;;;;;;5112962;28;20043;-86
2022/01/15 05:04:04;;;;;;;24.75;8.07;;;5.70;99.90;;;;;;5095010;28;20046;-85
2022/01/15 05:06:30;;;;;;;19.95;7.72;;;6.00;99.90;;;;;;5092445;28;20515;-86
2022/01/15 05:09:05;;;;;;;18.08;7.18;;;5.90;99.90;;;;;;5075859;28;20052;-86
2022/01/15 05:11:46;;;;;;;18.88;7.45;;;5.70;99.90;;;;;;5092545;28;20047;-86
2022/01/15 05:14:15;;;;;;;26.17;7.75;;;5.60;99.90;;;;;;5086103;28;20396;-85
2022/01/15 05:16:41;;;;;;;32.30;8.38;;;5.60;99.90;;;;;;5112152;28;20046;-86
2022/01/15 05:19:06;;;;;;;25.70;7.45;;;5.60;99.90;;;;;;5098279;28;20052;-86
2022/01/15 05:21:32;;;;;;;18.52;6.88;;;5.60;99.90;;;;;;5091932;28;20047;-86
2022/01/15 05:23:58;;;;;;;19.13;6.97;;;5.90;99.90;;;;;;5105528;28;20129;-88
2022/01/15 05:26:24;;;;;;;20.15;6.75;;;5.60;99.90;;;;;;5095461;28;20118;-86
2022/01/15 05:28:49;;;;;;;12.95;4.90;;;6.00;99.90;;;;;;5111447;28;20485;-86
2022/01/15 05:31:15;;;;;;;17.63;5.18;;;5.50;99.90;;;;;;5112141;27;20050;-86
2022/01/15 05:33:41;;;;;;;11.60;4.07;;;5.50;99.90;;;;;;5079225;28;20048;-87
2022/01/15 05:36:07;;;;;;;11.50;4.15;;;5.60;99.90;;;;;;5096097;28;20123;-87
2022/01/15 05:38:32;;;;;;;12.55;4.05;;;5.50;99.90;;;;;;5095878;28;20473;-85
2022/01/15 05:40:58;;;;;;;19.55;7.55;;;5.60;99.90;;;;;;5092073;27;20043;-86
2022/01/15 05:43:24;;;;;;;23.92;7.03;;;5.60;99.90;;;;;;5114990;27;20502;-86
2022/01/15 05:45:49;;;;;;;20.05;8.18;;;5.60;99.90;;;;;;5098441;27;20039;-87
2022/01/15 05:48:16;;;;;;;23.95;8.40;;;5.60;99.90;;;;;;5099615;28;20044;-86
2022/01/15 05:50:41;;;;;;;19.83;8.13;;;5.60;99.90;;;;;;5113149;28;20065;-86
2022/01/15 05:53:07;;;;;;;22.13;8.40;;;5.60;99.90;;;;;;5112980;27;20491;-87
2022/01/15 05:55:33;;;;;;;20.30;8.02;;;5.90;99.90;;;;;;5098178;27;20051;-86
2022/01/15 05:57:59;;;;;;;23.42;8.50;;;5.60;99.90;;;;;;5116080;27;20070;-86
2022/01/15 06:00:24;;;;;;;21.98;8.65;;;5.90;99.90;;;;;;5096123;27;20039;-85
2022/01/15 06:02:50;;;;;;;25.50;8.65;;;5.60;99.90;;;;;;5082817;28;20078;-87
2022/01/15 06:05:16;;;;;;;23.90;8.80;;;5.50;99.90;;;;;;5090570;27;20035;-86
2022/01/15 06:07:41;;;;;;;16.02;6.72;;;5.60;99.90;;;;;;5111513;28;20058;-86
2022/01/15 06:10:08;;;;;;;16.77;6.45;;;5.60;99.90;;;;;;5062208;28;20087;-86
2022/01/15 06:12:42;;;;;;;12.27;4.88;;;5.50;99.90;;;;;;5095405;28;20054;-86
2022/01/15 06:15:09;;;;;;;10.98;4.57;;;5.50;99.90;;;;;;5094013;28;20131;-86
2022/01/15 06:17:34;;;;;;;9.50;4.63;;;5.50;99.90;;;;;;5095269;28;20047;-86
2022/01/15 06:20:00;;;;;;;11.07;4.68;;;5.60;99.90;;;;;;5095202;28;20423;-87
2022/01/15 06:22:26;;;;;;;12.73;5.28;;;5.60;99.90;;;;;;5095177;28;20051;-86
2022/01/15 06:24:52;;;;;;;15.05;5.78;;;5.50;99.90;;;;;;5078125;28;20055;-87
2022/01/15 06:27:19;;;;;;;13.82;5.65;;;5.50;99.90;;;;;;5098582;27;20044;-87
2022/01/15 06:29:45;;;;;;;16.02;6.00;;;5.50;99.90;;;;;;5109528;28;20047;-86
2022/01/15 06:32:12;;;;;;;14.82;5.95;;;5.50;99.90;;;;;;5078886;28;20043;-86
2022/01/15 06:34:38;;;;;;;12.13;5.60;;;5.50;99.90;;;;;;5094986;28;20435;-86
2022/01/15 06:37:05;;;;;;;15.15;5.57;;;5.50;99.90;;;;;;5095512;28;20132;-86
2022/01/15 06:39:34;;;;;;;;;;;5.50;99.90;;;;;;5095051;28;20047;-87
2022/01/15 06:42:00;;;;;;;15.68;6.53;;;5.50;99.90;;;;;;5088281;28;19923;-87
2022/01/15 06:44:26;;;;;;;17.77;6.55;;;5.40;99.90;;;;;;5093294;28;20044;-86
2022/01/15 06:46:51;;;;;;;17.88;6.30;;;5.50;99.90;;;;;;5077995;28;20059;-86
2022/01/15 06:49:17;;;;;;;17.92;6.68;;;5.40;99.90;;;;;;5114919;27;20131;-86
2022/01/15 06:51:43;;;;;;;21.75;7.07;;;5.40;99.90;;;;;;5098039;27;20271;-86
2022/01/15 06:54:09;;;;;;;;;;;5.40;99.90;;;;;;5098452;27;20049;-87
2022/01/15 06:56:35;;;;;;;22.63;8.18;;;5.40;99.90;;;;;;5114875;27;19920;-87
2022/01/15 06:59:01;;;;;;;21.90;7.50;;;5.40;99.90;;;;;;5079886;28;20048;-87
2022/01/15 07:01:26;;;;;;;24.33;8.68;;;5.40;99.90;;;;;;5094018;28;20126;-84
2022/01/15 07:03:52;;;;;;;24.80;9.48;;;5.40;99.90;;;;;;5087135;28;20535;-87
2022/01/15 07:06:18;;;;;;;22.58;8.70;;;5.40;99.90;;;;;;5094669;28;20110;-87
2022/01/15 07:08:43;;;;;;;26.50;9.05;;;5.40;99.90;;;;;;5093784;28;20051;-87
2022/01/15 07:11:09;;;;;;;21.40;8.05;;;5.40;99.90;;;;;;5094902;28;20060;-87
2022/01/15 07:13:35;;;;;;;23.27;7.50;;;5.40;99.90;;;;;;5094689;27;20072;-86
2022/01/15 07:16:01;;;;;;;23.83;7.85;;;5.40;99.90;;;;;;5094307;28;20106;-87
2022/01/15 07:18:26;;;;;;;19.00;8.00;;;5.40;99.90;;;;;;5089864;27;20075;-84
2022/01/15 07:20:53;;;;;;;25.08;7.93;;;5.40;99.90;;;;;;5079875;27;20552;-87
2022/01/15 07:23:18;;;;;;;18.55;7.53;;;5.40;99.90;;;;;;5095090;28;20500;-87
2022/01/15 07:25:44;;;;;;;20.13;7.68;;;5.40;99.90;;;;;;5059995;28;20051;-87
2022/01/15 07:28:10;;;;;;;27.27;7.70;;;5.40;99.90;;;;;;5093589;28;20051;-87
2022/01/15 07:30:36;;;;;;;20.38;7.75;;;5.40;99.90;;;;;;5092544;28;20062;-86
2022/01/15 07:33:02;;;;;;;30.67;10.05;;;5.40;99.90;;;;;;5083008;28;20052;-87
2022/01/15 07:35:28;;;;;;;31.90;10.90;;;5.40;99.90;;;;;;5114039;27;20090;-84
2022/01/15 07:37:55;;;;;;;32.78;11.00;;;5.40;99.90;;;;;;5097262;27;20468;-87
2022/01/15 07:40:20;;;;;;;28.73;10.02;;;5.40;99.90;;;;;;5118839;27;20051;-86
2022/01/15 07:42:46;;;;;;;33.42;10.80;;;5.70;99.90;;;;;;5093548;28;20069;-85
2022/01/15 07:45:14;;;;;;;27.70;9.70;;;5.30;99.90;;;;;;5106127;27;20050;-87
2022/01/15 07:47:40;;;;;;;26.92;9.23;;;5.40;99.90;;;;;;5113192;27;20055;-87
2022/01/15 07:50:09;;;;;;;17.90;7.28;;;5.40;99.90;;;;;;5114019;27;20090;-87
2022/01/15 07:52:35;;;;;;;21.63;8.20;;;5.40;99.90;;;;;;5109843;28;20075;-86
2022/01/15 07:55:01;;;;;;;23.95;7.80;;;5.30;99.90;;;;;;5075732;28;20523;-86
2022/01/15 07:57:27;;;;;;;24.60;7.95;;;5.30;99.90;;;;;;5086799;27;20079;-86
2022/01/15 07:59:53;;;;;;;19.92;7.97;;;5.40;99.90;;;;;;5109951;27;20066;-88
2022/01/15 08:02:19;;;;;;;19.67;7.95;;;5.30;99.90;;;;;;5093148;28;20051;-86
2022/01/15 08:04:44;;;;;;;20.42;7.88;;;5.30;99.90;;;;;;5110565;27;20047;-86
2022/01/15 08:07:10;;;;;;;19.63;7.65;;;5.30;99.90;;;;;;5096678;27;20043;-87
2022/01/15 08:09:37;;;;;;;17.88;7.10;;;5.40;99.90;;;;;;5113011;27;20126;-86
2022/01/15 08:12:03;;;;;;;20.92;7.43;;;5.30;99.90;;;;;;5107181;27;20044;-85
2022/01/15 08:14:29;;;;;;;19.10;8.20;;;5.30;99.90;;;;;;5091323;28;20111;-86
2022/01/15 08:16:55;;;;;;;19.42;8.07;;;5.30;99.90;;;;;;5110647;27;20051;-84
2022/01/15 08:19:21;;;;;;;20.48;8.57;;;5.30;99.90;;;;;;5076214;28;20048;-87
2022/01/15 08:21:46;;;;;;;19.77;7.47;;;5.30;99.90;;;;;;5076613;28;20071;-89
2022/01/15 08:24:12;;;;;;;20.63;7.78;;;5.40;99.90;;;;;;5092696;28;20055;-85
2022/01/15 08:26:38;;;;;;;20.50;8.40;;;5.30;99.90;;;;;;5092392;28;20047;-88
2022/01/15 08:29:04;;;;;;;20.95;7.97;;;5.30;99.90;;;;;;5075276;28;20100;-88
2022/01/15 08:31:30;;;;;;;22.90;8.60;;;5.40;99.90;;;;;;5076196;28;20103;-87
2022/01/15 08:33:55;;;;;;;23.58;8.73;;;5.30;99.90;;;;;;5093361;28;20665;-87
2022/01/15 08:36:22;;;;;;;21.90;8.82;;;6.20;99.90;;;;;;5095687;28;20047;-88
2022/01/15 08:38:48;;;;;;;18.85;8.15;;;5.30;99.90;;;;;;5112742;27;20050;-87
2022/01/15 08:41:14;;;;;;;;;;;5.50;99.90;;;;;;5096017;28;20048;-86
2022/01/15 08:43:43;;;;;;;20.20;8.10;;;5.30;99.90;;;;;;5074329;28;19919;-85
2022/01/15 08:46:11;;;;;;;19.70;8.38;;;5.30;99.90;;;;;;5075743;28;20055;-87
2022/01/15 08:48:37;;;;;;;24.45;9.50;;;5.20;99.90;;;;;;5092319;28;20089;-85
2022/01/15 08:51:03;;;;;;;26.45;10.23;;;5.30;99.90;;;;;;5093184;28;20047;-87
2022/01/15 08:53:28;;;;;;;26.40;10.90;;;5.20;99.90;;;;;;5092625;28;20151;-87
2022/01/15 08:55:55;;;;;;;28.73;10.75;;;5.30;99.90;;;;;;5110537;28;20142;-87
2022/01/15 08:58:21;;;;;;;25.67;10.10;;;5.30;99.90;;;;;;5109726;28;20091;-88
2022/01/15 09:00:48;;;;;;;27.42;9.88;;;5.50;99.90;;;;;;5076493;28;20105;-87
2022/01/15 09:03:14;;;;;;;27.98;9.75;;;5.30;99.90;;;;;;5104266;28;20085;-87
2022/01/15 09:05:39;;;;;;;28.48;10.68;;;5.40;99.90;;;;;;5095278;28;20047;-85
2022/01/15 09:08:06;;;;;;;28.95;10.75;;;5.20;99.90;;;;;;5115995;27;20474;-91
2022/01/15 09:10:32;;;;;;;27.77;10.05;;;5.20;99.90;;;;;;5117196;27;20468;-86
2022/01/15 09:12:58;;;;;;;;;;;5.20;99.90;;;;;;5100103;27;20103;-88
2022/01/15 09:15:24;;;;;;;22.67;9.57;;;5.20;99.90;;;;;;5115632;27;19919;-88
2022/01/15 09:17:50;;;;;;;17.95;7.88;;;5.20;99.90;;;;;;5135034;27;20096;-87
2022/01/15 09:20:16;;;;;;;16.98;7.80;;;5.20;99.90;;;;;;5100074;27;20055;-88
2022/01/15 09:22:42;;;;;;;16.77;8.00;;;5.20;99.90;;;;;;5116681;27;20422;-86
2022/01/15 09:25:08;;;;;;;17.55;7.88;;;5.20;99.90;;;;;;5115466;27;20429;-86
2022/01/15 09:30:19;;;;;;;16.52;7.30;;;5.10;99.90;;;;;;5113971;27;20058;-90
2022/01/15 09:32:54;;;;;;;16.15;7.55;;;5.30;99.90;;;;;;5117518;27;20533;-88
2022/01/15 09:35:27;;;;;;;17.55;8.20;;;5.20;99.90;;;;;;5115993;27;20130;-88
2022/01/15 09:37:54;;;;;;;19.95;9.10;;;5.20;99.90;;;;;;5112760;27;20062;-89
2022/01/15 09:40:23;;;;;;;20.63;8.52;;;5.20;99.90;;;;;;5107583;27;20130;-89
2022/01/15 09:42:50;;;;;;;21.35;9.60;;;5.20;99.90;;;;;;5105968;27;20488;-88
2022/01/15 09:45:21;;;;;;;23.00;10.00;;;5.20;99.90;;;;;;5111516;27;20500;-90
2022/01/15 09:47:54;;;;;;;19.40;9.90;;;5.30;99.90;;;;;;5114847;27;20491;-89
2022/01/15 09:50:20;;;;;;;22.35;10.57;;;5.30;99.90;;;;;;5112597;27;20051;-89
2022/01/15 09:52:47;;;;;;;21.02;9.85;;;5.30;99.90;;;;;;5116191;27;20792;-87
2022/01/15 09:55:13;;;;;;;21.40;9.68;;;5.30;99.90;;;;;;5118383;27;20053;-86
2022/01/15 09:57:39;;;;;;;;;;;5.30;99.90;;;;;;5101217;27;20050;-89
2022/01/15 10:00:14;;;;;;;18.77;9.15;;;5.30;99.90;;;;;;5115123;27;20011;-90
2022/01/15 10:02:45;;;;;;;19.95;9.18;;;5.20;99.90;;;;;;5115158;27;20043;-88
2022/01/15 10:05:12;;;;;;;20.13;9.20;;;5.20;99.90;;;;;;5118525;27;20408;-89
2022/01/15 10:07:39;;;;;;;21.98;10.43;;;5.20;99.90;;;;;;5093780;27;20103;-90
2022/01/15 10:10:14;;;;;;;22.83;10.40;;;5.20;99.90;;;;;;5087420;27;20095;-90
2022/01/15 10:12:42;;;;;;;22.52;10.95;;;5.30;99.90;;;;;;5098198;27;20061;-88
2022/01/15 10:15:09;;;;;;;22.08;10.65;;;5.20;99.90;;;;;;5104547;27;20050;-87
2022/01/15 10:17:36;;;;;;;24.80;11.55;;;5.30;99.90;;;;;;5135873;27;20046;-88
2022/01/15 10:20:08;;;;;;;23.35;11.68;;;5.40;99.90;;;;;;5135568;27;20154;-86
2022/01/15 10:22:37;;;;;;;26.92;11.93;;;5.30;99.90;;;;;;5136199;27;20042;-88
2022/01/15 10:25:16;;;;;;;28.75;12.13;;;5.20;99.90;;;;;;5134392;27;20048;-87
2022/01/15 10:27:44;;;;;;;25.27;11.02;;;5.20;99.90;;;;;;5136362;27;20046;-87
2022/01/15 10:30:27;;;;;;;28.58;12.30;;;5.20;99.90;;;;;;5133411;27;20149;-87
2022/01/15 10:32:57;;;;;;;27.05;12.13;;;5.20;99.90;;;;;;5135813;27;20519;-88
2022/01/15 10:35:25;;;;;;;28.63;12.43;;;5.30;99.90;;;;;;5105586;27;20108;-88
2022/01/15 10:37:59;;;;;;;26.92;11.60;;;5.30;99.90;;;;;;5112345;28;20056;-88
2022/01/15 10:40:28;;;;;;;26.45;11.88;;;5.30;99.90;;;;;;5095164;28;20095;-85
2022/01/15 10:42:59;;;;;;;23.10;11.05;;;5.30;99.90;;;;;;5094213;28;20171;-88
2022/01/15 10:45:29;;;;;;;24.65;11.63;;;5.30;99.90;;;;;;5118471;27;20047;-86
2022/01/15 10:47:56;;;;;;;28.70;12.32;;;5.20;99.90;;;;;;5105951;28;20542;-90
2022/01/15 10:50:30;;;;;;;28.80;13.35;;;5.20;99.90;;;;;;5110686;27;20052;-90
2022/01/15 10:53:03;;;;;;;28.23;12.52;;;5.20;99.90;;;;;;5133728;27;20051;-88
2022/01/15 10:55:31;;;;;;;28.50;13.27;;;5.20;99.90;;;;;;5129906;27;20120;-91
2022/01/15 10:58:02;;;;;;;28.95;12.73;;;5.40;99.90;;;;;;5094873;28;20134;-88
2022/01/15 11:00:35;;;;;;;28.67;12.82;;;5.30;99.90;;;;;;5077369;28;20035;-89
2022/01/15 11:03:03;;;;;;;26.38;12.80;;;5.30;99.90;;;;;;5112042;28;20429;-90
2022/01/15 11:05:35;;;;;;;27.80;12.30;;;5.20;99.90;;;;;;5099398;28;20058;-89
2022/01/15 11:08:15;;;;;;;26.60;11.80;;;5.30;99.90;;;;;;5102325;27;20044;-91
2022/01/15 11:10:46;;;;;;;25.85;12.45;;;5.30;99.90;;;;;;5115704;27;20047;-92
2022/01/15 11:13:15;;;;;;;26.77;12.23;;;5.30;99.90;;;;;;5114394;27;20491;-90
2022/01/15 11:15:44;;;;;;;23.55;11.20;;;5.30;99.90;;;;;;5101927;27;20086;-90
2022/01/15 11:18:23;;;;;;;24.10;11.68;;;5.30;99.90;;;;;;5116630;27;20038;-88
2022/01/15 11:20:52;;;;;;;26.38;11.73;;;5.20;99.90;;;;;;5115469;27;20130;-86
2022/01/15 11:23:23;;;;;;;27.25;12.35;;;5.30;99.90;;;;;;5099812;27;20070;-94
2022/01/15 11:25:51;;;;;;;26.33;12.18;;;5.20;99.90;;;;;;5130481;27;20067;-92
2022/01/15 11:28:22;;;;;;;27.73;12.80;;;5.20;99.90;;;;;;5077989;27;20043;-92
2022/01/15 11:30:50;;;;;;;26.67;13.40;;;5.30;99.90;;;;;;5092291;27;20057;-93
2022/01/15 11:33:21;;;;;;;26.67;12.07;;;5.20;99.90;;;;;;5106359;27;20075;-93
2022/01/15 11:35:47;;;;;;;28.38;12.75;;;5.20;99.90;;;;;;5129581;27;20127;-91
2022/01/15 11:38:39;;;;;;;28.88;12.60;;;5.10;99.90;;;;;;5127530;27;20147;-93
2022/01/15 11:41:21;;;;;;;25.63;12.18;;;5.10;99.90;;;;;;5091770;27;20107;-94
2022/01/15 11:43:47;;;;;;;26.30;12.63;;;5.10;99.90;;;;;;5091549;27;20039;-91
2022/01/15 11:46:42;;;;;;;25.63;11.75;;;5.10;99.90;;;;;;5091377;27;20590;-91
2022/01/15 11:49:28;;;;;;;25.40;12.45;;;5.20;99.90;;;;;;5106844;27;20051;-90
2022/01/15 11:52:14;;;;;;;22.50;11.85;;;5.20;99.90;;;;;;5102623;27;20132;-85
2022/01/15 11:55:05;;;;;;;26.75;12.50;;;5.20;99.90;;;;;;5104645;27;20046;-91
2022/01/15 11:57:36;;;;;;;25.10;12.48;;;5.60;99.90;;;;;;5104825;27;20043;-89
2022/01/15 12:00:32;;;;;;;29.20;12.85;;;5.20;99.90;;;;;;5100879;27;20047;-91
2022/01/15 12:03:00;;;;;;;22.80;11.73;;;5.10;99.90;;;;;;5107373;27;20048;-85
2022/01/15 12:05:32;;;;;;;24.77;11.95;;;5.10;99.90;;;;;;5104312;28;20464;-90
2022/01/15 12:08:00;;;;;;;25.42;12.02;;;5.20;99.90;;;;;;5077022;28;20040;-83
2022/01/15 12:10:40;;;;;;;26.17;12.02;;;5.10;99.90;;;;;;5099336;28;20086;-90
2022/01/15 12:13:15;;;;;;;21.65;11.18;;;5.10;99.90;;;;;;5093834;28;20039;-87
2022/01/15 12:15:41;;;;;;;24.27;10.93;;;5.10;99.90;;;;;;5111236;27;20051;-91
2022/01/15 12:18:21;;;;;;;20.98;10.10;;;5.20;99.90;;;;;;5113569;27;20051;-91
2022/01/15 12:20:54;;;;;;;20.27;10.65;;;5.10;99.90;;;;;;5077356;28;20047;-91
2022/01/15 12:23:19;;;;;;;21.40;10.95;;;5.10;99.90;;;;;;5117548;27;20208;-90
2022/01/15 12:25:51;;;;;;;20.55;11.07;;;5.00;99.90;;;;;;5110403;28;20054;-90
2022/01/15 12:28:18;;;;;;;24.70;12.18;;;5.10;99.90;;;;;;5112691;27;20055;-91
2022/01/15 12:30:51;;;;;;;22.88;11.93;;;5.10;99.90;;;;;;5089305;27;20050;-91
2022/01/15 12:33:19;;;;;;;27.27;12.95;;;5.10;99.90;;;;;;5096768;27;20039;-88
2022/01/15 12:35:51;;;;;;;24.20;12.60;;;5.10;99.90;;;;;;5117137;28;20043;-90
2022/01/15 12:38:21;;;;;;;24.92;11.77;;;5.10;99.90;;;;;;5103525;28;20419;-89
2022/01/15 12:40:52;;;;;;;24.92;12.02;;;5.10;99.90;;;;;;5114071;27;20369;-89
2022/01/15 12:43:17;;;;;;;21.13;11.13;;;5.10;99.90;;;;;;5130634;27;20050;-89
2022/01/15 12:45:46;;;;;;;24.45;11.75;;;5.00;99.90;;;;;;5112358;28;20047;-87
2022/01/15 12:48:21;;;;;;;23.05;11.30;;;5.00;99.90;;;;;;5122834;28;20056;-91
2022/01/15 12:50:59;;;;;;;25.70;13.23;;;5.00;99.90;;;;;;5117270;28;20598;-91
2022/01/15 12:53:36;;;;;;;23.20;11.85;;;5.00;99.90;;;;;;5110415;28;20051;-82
2022/01/15 12:56:14;;;;;;;26.00;12.38;;;5.00;99.90;;;;;;5114702;28;20078;-84
2022/01/15 12:58:40;;;;;;;22.77;10.80;;;5.10;99.90;;;;;;5108043;28;20139;-90
2022/01/15 13:01:09;;;;;;;;;;;5.00;99.90;;;;;;5103272;28;20043;-84
2022/01/15 13:03:39;;;;;;;22.55;11.35;;;5.00;99.90;;;;;;5112753;28;19923;-84
2022/01/15 13:06:07;;;;;;;23.27;11.52;;;5.20;99.90;;;;;;5095550;28;20086;-82
2022/01/15 13:08:39;;;;;;;25.80;11.63;;;5.00;99.90;;;;;;5092981;28;20044;-86
2022/01/15 13:13:38;;;;;;;23.27;11.80;;;5.10;99.90;;;;;;5109395;28;20050;-83
2022/01/15 13:16:05;;;;;;;23.45;11.95;;;5.00;99.90;;;;;;5115731;28;20472;-82
2022/01/15 13:18:34;;;;;;;22.13;11.55;;;5.00;99.90;;;;;;5093594;28;20051;-87
2022/01/15 13:21:02;;;;;;;24.50;11.70;;;5.00;99.90;;;;;;5092417;28;20059;-87